createdAt,value
2022-08-08T00:00:55.704Z,16.73
2022-08-08T00:02:57.659Z,16.69
2022-08-08T00:05:43.866Z,16.65
2022-08-08T00:08:27.104Z,16.58
2022-08-08T00:11:00.827Z,16.60
2022-08-08T00:14:16.880Z,16.57
2022-08-08T00:16:41.362Z,16.54
2022-08-08T00:19:17.370Z,16.50
2022-08-08T00:21:52.430Z,16.48
2022-08-08T00:24:29.911Z,16.45
2022-08-08T00:27:05.970Z,16.40
2022-08-08T00:29:44.196Z,16.40
2022-08-08T00:32:34.154Z,16.38
2022-08-08T00:35:21.313Z,16.35
2022-08-08T00:38:32.040Z,16.32
2022-08-08T00:42:08.812Z,16.30
2022-08-08T00:45:03.914Z,16.22
2022-08-08T00:48:30.553Z,16.20
2022-08-08T00:51:38.158Z,16.17
2022-08-08T00:54:51.837Z,16.26
2022-08-08T00:58:12.726Z,16.26
2022-08-08T01:00:53.220Z,16.29
2022-08-08T01:04:11.740Z,16.33
2022-08-08T01:07:05.732Z,16.37
2022-08-08T01:10:24.814Z,16.37
2022-08-08T01:13:43.934Z,16.37
2022-08-08T01:17:03.494Z,16.35
2022-08-08T01:20:16.810Z,16.31
2022-08-08T01:24:06.129Z,16.26
2022-08-08T01:27:10.852Z,16.24
2022-08-08T01:30:03.878Z,16.22
2022-08-08T01:33:33.659Z,16.13
2022-08-08T01:39:23.922Z,16.18
2022-08-08T01:42:02.596Z,16.14
2022-08-08T01:44:58.984Z,16.12
2022-08-08T01:48:11.541Z,16.07
2022-08-08T01:50:58.955Z,16.02
2022-08-08T01:54:12.638Z,15.86
2022-08-08T01:56:47.449Z,15.95
2022-08-08T02:00:01.865Z,15.93
2022-08-08T02:02:42.657Z,15.89
2022-08-08T02:05:33.821Z,15.85
2022-08-08T02:08:34.046Z,15.74
2022-08-08T02:11:23.135Z,15.80
2022-08-08T02:13:59.652Z,15.76
2022-08-08T02:16:45.671Z,15.71
2022-08-08T02:19:41.713Z,15.64
2022-08-08T02:22:31.585Z,15.67
2022-08-08T02:25:11.810Z,15.69
2022-08-08T02:27:50.972Z,15.70
2022-08-08T02:30:27.097Z,15.68
2022-08-08T02:33:16.811Z,15.67
2022-08-08T02:36:05.677Z,15.66
2022-08-08T02:39:01.393Z,15.60
2022-08-08T02:42:11.782Z,15.56
2022-08-08T02:45:23.814Z,15.51
2022-08-08T02:48:28.342Z,15.48
2022-08-08T02:51:55.661Z,15.45
2022-08-08T02:54:53.443Z,15.30
2022-08-08T02:57:57.431Z,15.22
2022-08-08T03:00:47.228Z,15.11
2022-08-08T03:05:03.806Z,15.03
2022-08-08T03:07:41.871Z,14.98
2022-08-08T03:10:55.957Z,14.99
2022-08-08T03:15:57.495Z,14.90
2022-08-08T03:16:51.682Z,14.90
2022-08-08T03:19:51.355Z,14.93
2022-08-08T03:22:38.287Z,14.91
2022-08-08T03:25:18.087Z,14.90
2022-08-08T03:27:58.162Z,14.92
2022-08-08T03:30:29.357Z,14.87
2022-08-08T03:33:58.138Z,14.82
2022-08-08T03:36:10.402Z,14.75
2022-08-08T03:38:56.431Z,14.71
2022-08-08T03:42:12.593Z,14.64
2022-08-08T03:44:34.158Z,14.59
2022-08-08T03:47:07.113Z,14.56
2022-08-08T03:49:59.829Z,14.55
2022-08-08T03:52:35.180Z,14.51
2022-08-08T03:55:19.979Z,14.54
2022-08-08T03:58:31.986Z,14.61
2022-08-08T04:01:01.762Z,14.71
2022-08-08T04:03:59.154Z,14.82
2022-08-08T04:06:30.121Z,14.87
2022-08-08T04:09:10.867Z,14.92
2022-08-08T04:11:58.015Z,14.93
2022-08-08T04:14:45.171Z,14.91
2022-08-08T04:17:22.454Z,14.89
2022-08-08T04:20:04.881Z,14.90
2022-08-08T04:22:34.158Z,14.88
2022-08-08T04:25:04.471Z,14.88
2022-08-08T04:28:03.611Z,14.86
2022-08-08T04:30:23.054Z,14.82
2022-08-08T04:32:54.259Z,14.80
2022-08-08T04:35:29.444Z,14.83
2022-08-08T04:38:01.177Z,14.89
2022-08-08T04:40:34.619Z,14.91
2022-08-08T04:43:05.548Z,14.91
2022-08-08T04:45:42.665Z,14.93
2022-08-08T04:48:11.503Z,14.95
2022-08-08T04:50:46.138Z,14.93
2022-08-08T04:54:27.444Z,14.89
2022-08-08T04:56:08.613Z,15.01
2022-08-08T04:58:38.173Z,15.02
2022-08-08T05:01:11.340Z,15.06
2022-08-08T05:04:09.746Z,15.08
2022-08-08T05:06:39.413Z,15.14
2022-08-08T05:09:09.171Z,15.15
2022-08-08T05:11:41.070Z,15.20
2022-08-08T05:14:14.177Z,15.22
2022-08-08T05:17:00.606Z,15.29
2022-08-08T05:20:10.147Z,15.43
2022-08-08T05:22:27.768Z,16.97
2022-08-08T05:24:58.091Z,19.14
2022-08-08T05:27:26.404Z,20.82
2022-08-08T05:29:56.538Z,21.76
2022-08-08T05:32:34.347Z,22.59
2022-08-08T05:35:05.739Z,23.09
2022-08-08T05:37:52.913Z,23.56
2022-08-08T05:40:46.489Z,24.02
2022-08-08T05:43:39.637Z,24.54
2022-08-08T05:46:11.850Z,24.70
2022-08-08T05:48:43.480Z,24.71
2022-08-08T05:51:18.799Z,24.87
2022-08-08T05:54:25.443Z,24.79
2022-08-08T05:56:47.292Z,25.07
2022-08-08T05:59:59.509Z,25.32
2022-08-08T06:02:48.155Z,25.49
2022-08-08T06:05:35.144Z,25.80
2022-08-08T06:08:28.787Z,25.73
2022-08-08T06:11:02.052Z,25.72
2022-08-08T06:13:36.215Z,25.26
2022-08-08T06:16:16.154Z,25.21
2022-08-08T06:19:12.199Z,24.72
2022-08-08T06:21:57.056Z,24.87
2022-08-08T06:24:36.951Z,24.90
2022-08-08T06:27:10.689Z,24.56
2022-08-08T06:30:02.172Z,23.56
2022-08-08T06:32:47.495Z,22.43
2022-08-08T06:36:05.963Z,21.87
2022-08-08T06:38:14.726Z,21.74
2022-08-08T06:40:54.217Z,21.33
2022-08-08T06:43:33.871Z,20.85
2022-08-08T06:46:08.712Z,20.65
2022-08-08T06:48:38.471Z,20.44
2022-08-08T06:51:08.667Z,20.30
2022-08-08T06:53:50.698Z,20.16
2022-08-08T06:56:31.117Z,20.13
2022-08-08T06:58:59.815Z,20.13
2022-08-08T07:02:27.719Z,20.04
2022-08-08T07:04:41.592Z,20.09
2022-08-08T07:07:20.958Z,20.11
2022-08-08T07:10:08.351Z,19.91
2022-08-08T07:12:43.414Z,19.95
2022-08-08T07:15:32.331Z,20.03
2022-08-08T07:18:37.180Z,20.02
2022-08-08T07:21:05.678Z,19.89
2022-08-08T07:24:01.793Z,19.78
2022-08-08T07:26:41.217Z,19.76
2022-08-08T07:30:00.440Z,19.75
2022-08-08T07:32:00.019Z,19.72
2022-08-08T07:34:32.422Z,19.63
2022-08-08T07:37:11.800Z,19.82
2022-08-08T07:39:55.866Z,19.81
2022-08-08T07:42:33.378Z,19.83
2022-08-08T07:45:05.858Z,19.88
2022-08-08T07:47:39.392Z,19.81
2022-08-08T07:50:11.092Z,19.82
2022-08-08T07:52:44.157Z,19.89
2022-08-08T07:55:20.412Z,19.93
2022-08-08T07:58:01.126Z,19.93
2022-08-08T08:00:38.841Z,20.00
2022-08-08T08:03:23.491Z,19.92
2022-08-08T08:05:56.686Z,19.96
2022-08-08T08:08:39.181Z,20.10
2022-08-08T08:11:20.025Z,20.12
2022-08-08T08:14:07.471Z,20.28
2022-08-08T08:16:48.591Z,20.35
2022-08-08T08:19:21.245Z,20.48
2022-08-08T08:21:58.059Z,20.62
2022-08-08T08:24:35.374Z,20.71
2022-08-08T08:27:09.381Z,20.69
2022-08-08T08:29:42.427Z,20.72
2022-08-08T08:32:14.167Z,20.75
2022-08-08T08:35:00.497Z,20.93
2022-08-08T08:37:32.164Z,21.08
2022-08-08T08:40:03.053Z,21.06
2022-08-08T08:42:38.433Z,21.07
2022-08-08T08:45:21.220Z,21.15
2022-08-08T08:47:54.564Z,21.23
2022-08-08T08:50:33.361Z,21.39
2022-08-08T08:53:54.743Z,21.49
2022-08-08T08:56:03.780Z,21.61
2022-08-08T08:58:42.169Z,21.67
2022-08-08T09:01:18.483Z,21.62
2022-08-08T09:03:51.467Z,21.77
2022-08-08T09:06:33.762Z,21.85
2022-08-08T09:09:25.898Z,21.97
2022-08-08T09:12:08.614Z,22.09
2022-08-08T09:14:45.138Z,22.12
2022-08-08T09:17:31.871Z,22.29
2022-08-08T09:22:00.537Z,22.42
2022-08-08T09:22:59.949Z,22.46
2022-08-08T09:25:47.641Z,22.37
2022-08-08T09:28:23.893Z,22.34
2022-08-08T09:31:13.256Z,22.50
2022-08-08T09:34:30.045Z,22.52
2022-08-08T09:37:23.696Z,22.67
2022-08-08T09:39:36.745Z,22.86
2022-08-08T09:42:20.840Z,22.87
2022-08-08T09:45:15.749Z,22.90
2022-08-08T09:48:09.741Z,23.02
2022-08-08T09:50:44.068Z,22.93
2022-08-08T09:53:24.772Z,22.87
2022-08-08T09:56:14.410Z,22.98
2022-08-08T09:58:57.822Z,23.09
2022-08-08T10:01:59.711Z,23.20
2022-08-08T10:04:35.632Z,23.26
2022-08-08T10:07:07.886Z,23.43
2022-08-08T10:09:59.146Z,23.50
2022-08-08T10:12:37.463Z,23.44
2022-08-08T10:15:17.391Z,23.50
2022-08-08T10:18:06.251Z,23.69
2022-08-08T10:20:51.435Z,23.79
2022-08-08T10:23:44.193Z,23.88
2022-08-08T10:26:29.908Z,24.03
2022-08-08T10:29:04.776Z,23.94
2022-08-08T10:31:51.787Z,23.69
2022-08-08T10:34:21.561Z,23.68
2022-08-08T10:36:51.276Z,23.66
2022-08-08T10:39:31.607Z,23.77
2022-08-08T10:42:16.341Z,24.05
2022-08-08T10:44:45.620Z,24.09
2022-08-08T10:47:16.426Z,24.13
2022-08-08T10:50:02.258Z,24.16
2022-08-08T10:52:33.508Z,24.25
2022-08-08T10:55:06.976Z,24.31
2022-08-08T10:57:45.291Z,24.44
2022-08-08T11:00:23.189Z,24.57
2022-08-08T11:02:54.722Z,24.72
2022-08-08T11:05:23.432Z,24.81
2022-08-08T11:08:36.841Z,24.75
2022-08-08T11:10:44.009Z,24.79
2022-08-08T11:13:28.605Z,24.80
2022-08-08T11:16:00.857Z,24.89
2022-08-08T11:18:30.796Z,24.91
2022-08-08T11:21:08.813Z,24.97
2022-08-08T11:23:43.230Z,25.22
2022-08-08T11:26:19.154Z,25.41
2022-08-08T11:28:50.298Z,25.40
2022-08-08T11:31:21.004Z,25.39
2022-08-08T11:34:01.707Z,25.50
2022-08-08T11:36:33.199Z,25.61
2022-08-08T11:39:06.062Z,25.50
2022-08-08T11:41:45.136Z,25.46
2022-08-08T11:44:15.853Z,25.39
2022-08-08T11:46:45.060Z,25.40
2022-08-08T11:49:20.838Z,25.54
2022-08-08T11:51:52.440Z,25.66
2022-08-08T11:54:34.151Z,25.66
2022-08-08T11:57:14.664Z,25.94
2022-08-08T12:00:02.088Z,25.79
2022-08-08T12:02:48.362Z,25.62
2022-08-08T12:05:22.557Z,25.58
2022-08-08T12:07:52.663Z,25.68
2022-08-08T12:10:23.198Z,25.93
2022-08-08T12:13:02.503Z,26.07
2022-08-08T12:15:42.879Z,26.03
2022-08-08T12:18:21.328Z,26.21
2022-08-08T12:20:54.252Z,26.31
2022-08-08T12:23:42.956Z,26.46
2022-08-08T12:26:28.327Z,26.54
2022-08-08T12:29:21.290Z,26.55
2022-08-08T12:32:02.753Z,26.39
2022-08-08T12:34:39.328Z,26.26
2022-08-08T12:37:11.324Z,26.13
2022-08-08T12:40:01.451Z,26.40
2022-08-08T12:42:33.202Z,26.79
2022-08-08T12:45:58.448Z,27.05
2022-08-08T12:48:10.521Z,27.16
2022-08-08T12:50:51.909Z,26.95
2022-08-08T12:53:30.239Z,26.60
2022-08-08T12:56:19.430Z,26.44
2022-08-08T12:58:54.018Z,26.56
2022-08-08T13:01:36.954Z,26.57
2022-08-08T13:04:18.479Z,26.73
2022-08-08T13:07:00.835Z,26.79
2022-08-08T13:10:00.587Z,26.76
2022-08-08T13:12:32.495Z,26.78
2022-08-08T13:15:03.812Z,27.21
2022-08-08T13:18:09.045Z,27.24
2022-08-08T13:20:27.207Z,27.43
2022-08-08T13:23:41.310Z,27.62
2022-08-08T13:25:51.068Z,28.00
2022-08-08T13:28:31.830Z,28.17
2022-08-08T13:31:01.579Z,28.20
2022-08-08T13:33:41.621Z,28.26
2022-08-08T13:36:11.864Z,28.35
2022-08-08T13:38:40.177Z,28.42
2022-08-08T13:41:16.664Z,28.35
2022-08-08T13:43:47.037Z,28.52
2022-08-08T13:46:26.336Z,28.56
2022-08-08T13:49:11.410Z,28.23
2022-08-08T13:51:55.343Z,27.89
2022-08-08T13:54:31.400Z,27.78
2022-08-08T13:57:01.562Z,27.82
2022-08-08T13:59:32.889Z,27.78
2022-08-08T14:02:07.313Z,27.93
2022-08-08T14:04:53.286Z,27.74
2022-08-08T14:07:24.017Z,27.59
2022-08-08T14:10:04.683Z,27.50
2022-08-08T14:12:35.935Z,27.58
2022-08-08T14:15:05.060Z,27.46
2022-08-08T14:17:57.446Z,27.41
2022-08-08T14:20:55.988Z,27.63
2022-08-08T14:24:03.930Z,27.96
2022-08-08T14:26:10.788Z,28.12
2022-08-08T14:28:39.698Z,28.01
2022-08-08T14:31:11.434Z,27.73
2022-08-08T14:33:52.624Z,27.67
2022-08-08T14:36:34.658Z,27.78
2022-08-08T14:39:11.639Z,27.85
2022-08-08T14:41:45.269Z,27.78
2022-08-08T14:44:35.055Z,27.70
2022-08-08T14:47:17.222Z,27.55
2022-08-08T14:50:05.909Z,27.49
2022-08-08T14:52:54.132Z,27.49
2022-08-08T14:55:35.590Z,27.70
2022-08-08T14:58:12.184Z,27.58
2022-08-08T15:00:46.474Z,27.67
2022-08-08T15:03:17.257Z,27.57
2022-08-08T15:05:53.957Z,27.37
2022-08-08T15:08:34.986Z,27.44
2022-08-08T15:11:11.287Z,27.49
2022-08-08T15:14:01.762Z,27.50
2022-08-08T15:16:29.769Z,27.33
2022-08-08T15:19:03.346Z,27.26
2022-08-08T15:21:31.549Z,26.98
2022-08-08T15:24:01.205Z,26.57
2022-08-08T15:26:31.262Z,26.33
2022-08-08T15:28:59.264Z,26.32
2022-08-08T15:32:18.926Z,26.25
2022-08-08T15:34:18.777Z,26.19
2022-08-08T15:37:02.085Z,26.26
2022-08-08T15:39:38.146Z,26.25
2022-08-08T15:42:18.027Z,26.33
2022-08-08T15:45:00.265Z,26.27
2022-08-08T15:47:28.374Z,26.18
2022-08-08T15:49:59.277Z,26.20
2022-08-08T15:52:27.119Z,26.19
2022-08-08T15:54:56.484Z,26.05
2022-08-08T15:57:24.381Z,25.91
2022-08-08T16:00:26.331Z,25.73
2022-08-08T16:02:44.197Z,25.66
2022-08-08T16:05:19.268Z,25.75
2022-08-08T16:07:52.599Z,25.72
2022-08-08T16:13:12.068Z,25.54
2022-08-08T16:13:27.272Z,25.63
2022-08-08T16:16:16.437Z,25.61
2022-08-08T16:18:56.453Z,25.52
2022-08-08T16:21:28.054Z,25.56
2022-08-08T16:23:57.451Z,25.62
2022-08-08T16:26:34.516Z,25.65
2022-08-08T16:29:08.098Z,25.55
2022-08-08T16:31:40.374Z,25.56
2022-08-08T16:34:08.916Z,25.52
2022-08-08T16:36:37.461Z,25.48
2022-08-08T16:39:09.611Z,25.44
2022-08-08T16:41:51.107Z,25.14
2022-08-08T16:44:27.593Z,25.16
2022-08-08T16:47:17.279Z,25.15
2022-08-08T16:49:47.840Z,24.96
2022-08-08T16:55:01.410Z,25.14
2022-08-08T16:55:42.820Z,25.11
2022-08-08T16:58:15.359Z,25.02
2022-08-08T17:00:49.082Z,24.88
2022-08-08T17:03:25.416Z,24.77
2022-08-08T17:06:37.702Z,24.80
2022-08-08T17:08:56.755Z,24.80
2022-08-08T17:11:28.226Z,24.76
2022-08-08T17:14:17.721Z,24.65
2022-08-08T17:16:57.587Z,24.57
2022-08-08T17:19:27.363Z,24.50
2022-08-08T17:21:56.991Z,24.47
2022-08-08T17:24:27.920Z,24.46
2022-08-08T17:26:58.845Z,24.41
2022-08-08T17:29:33.755Z,24.38
2022-08-08T17:32:04.360Z,24.33
2022-08-08T17:34:52.897Z,24.31
2022-08-08T17:37:22.511Z,24.23
2022-08-08T17:40:12.459Z,24.21
2022-08-08T17:42:41.365Z,24.17
2022-08-08T17:45:23.548Z,24.09
2022-08-08T17:47:54.196Z,24.05
2022-08-08T17:50:23.522Z,24.03
2022-08-08T17:52:51.867Z,23.98
2022-08-08T17:56:04.661Z,23.88
2022-08-08T17:58:09.389Z,23.80
2022-08-08T18:00:41.335Z,23.76
2022-08-08T18:03:13.862Z,23.71
2022-08-08T18:05:43.963Z,23.65
2022-08-08T18:08:24.783Z,23.61
2022-08-08T18:11:07.301Z,23.55
2022-08-08T18:13:41.651Z,23.50
2022-08-08T18:16:12.798Z,23.42
2022-08-08T18:18:52.494Z,23.38
2022-08-08T18:21:35.551Z,23.33
2022-08-08T18:24:19.541Z,23.28
2022-08-08T18:26:55.058Z,23.19
2022-08-08T18:29:30.210Z,23.20
2022-08-08T18:32:05.251Z,23.14
2022-08-08T18:34:35.680Z,23.08
2022-08-08T18:37:08.597Z,23.05
2022-08-08T18:39:37.876Z,22.95
2022-08-08T18:42:13.724Z,22.92
2022-08-08T18:44:55.231Z,22.89
2022-08-08T18:47:25.981Z,22.82
2022-08-08T18:49:58.669Z,22.78
2022-08-08T18:52:30.051Z,22.71
2022-08-08T18:54:59.376Z,22.67
2022-08-08T18:57:31.741Z,22.60
2022-08-08T19:00:10.703Z,22.52
2022-08-08T19:02:48.363Z,22.51
2022-08-08T19:05:31.860Z,22.36
2022-08-08T19:08:24.688Z,22.38
2022-08-08T19:10:58.639Z,22.20
2022-08-08T19:13:52.772Z,22.20
2022-08-08T19:16:18.432Z,22.15
2022-08-08T19:18:59.952Z,22.07
2022-08-08T19:21:33.801Z,22.00
2022-08-08T19:24:18.499Z,21.95
2022-08-08T19:27:07.075Z,21.91
2022-08-08T19:29:42.449Z,21.84
2022-08-08T19:32:19.503Z,21.74
2022-08-08T19:34:52.050Z,21.67
2022-08-08T19:37:41.798Z,21.64
2022-08-08T19:40:14.624Z,21.57
2022-08-08T19:42:44.318Z,21.32
2022-08-08T19:45:13.960Z,21.45
2022-08-08T19:47:42.224Z,21.32
2022-08-08T19:50:15.058Z,21.32
2022-08-08T19:52:59.085Z,21.26
2022-08-08T19:55:27.788Z,21.16
2022-08-08T19:58:02.503Z,21.17
2022-08-08T20:00:34.434Z,21.07
2022-08-08T20:03:14.565Z,21.08
2022-08-08T20:06:15.522Z,20.96
2022-08-08T20:08:33.131Z,20.88
2022-08-08T20:11:01.204Z,20.85
2022-08-08T20:14:32.643Z,20.82
2022-08-08T20:16:18.750Z,20.75
2022-08-08T20:18:53.202Z,20.70
2022-08-08T20:21:25.255Z,20.64
2022-08-08T20:23:58.176Z,20.64
2022-08-08T20:26:29.976Z,20.59
2022-08-08T20:29:00.254Z,20.58
2022-08-08T20:32:02.829Z,20.53
2022-08-08T20:34:31.273Z,20.44
2022-08-08T20:37:03.246Z,20.38
2022-08-08T20:39:39.338Z,20.34
2022-08-08T20:42:28.812Z,20.21
2022-08-08T20:44:58.318Z,20.22
2022-08-08T20:47:26.844Z,20.15
2022-08-08T20:50:05.123Z,20.07
2022-08-08T20:52:35.062Z,19.99
2022-08-08T20:55:16.287Z,19.96
2022-08-08T20:57:51.331Z,19.91
2022-08-08T21:00:19.560Z,19.88
2022-08-08T21:02:52.498Z,19.81
2022-08-08T21:05:21.564Z,19.76
2022-08-08T21:08:37.166Z,19.70
2022-08-08T21:10:43.276Z,19.66
2022-08-08T21:13:11.242Z,19.62
2022-08-08T21:16:04.677Z,19.57
2022-08-08T21:18:28.017Z,19.53
2022-08-08T21:20:56.760Z,19.43
2022-08-08T21:23:59.033Z,19.41
2022-08-08T21:26:26.812Z,19.40
2022-08-08T21:28:56.055Z,19.37
2022-08-08T21:31:53.481Z,19.35
2022-08-08T21:34:18.659Z,19.32
2022-08-08T21:36:48.560Z,19.25
2022-08-08T21:39:19.087Z,19.24
2022-08-08T21:41:54.063Z,19.13
2022-08-08T21:44:27.136Z,19.14
2022-08-08T21:48:08.837Z,19.10
2022-08-08T21:49:43.065Z,19.03
2022-08-08T21:54:27.409Z,18.99
2022-08-08T21:55:04.214Z,18.96
2022-08-08T21:58:04.215Z,18.86
2022-08-08T22:00:37.321Z,18.86
2022-08-08T22:03:11.103Z,18.81
2022-08-08T22:05:48.503Z,18.78
2022-08-08T22:08:16.779Z,18.71
2022-08-08T22:10:54.191Z,18.73
2022-08-08T22:13:22.879Z,18.69
2022-08-08T22:15:58.313Z,18.63
2022-08-08T22:18:29.009Z,18.63
2022-08-08T22:20:59.502Z,18.58
2022-08-08T22:23:32.719Z,18.54
2022-08-08T22:26:26.834Z,18.50
2022-08-08T22:29:14.680Z,18.44
2022-08-08T22:31:40.568Z,18.44
2022-08-08T22:34:15.257Z,18.43
2022-08-08T22:36:43.483Z,18.41
2022-08-08T22:39:18.981Z,18.38
2022-08-08T22:41:49.589Z,18.37
2022-08-08T22:44:18.083Z,18.35
2022-08-08T22:46:46.027Z,18.36
2022-08-08T22:49:20.033Z,18.33
2022-08-08T22:51:48.287Z,18.29
2022-08-08T22:54:34.036Z,18.28
2022-08-08T22:57:11.482Z,18.22
2022-08-08T22:59:52.915Z,18.15
2022-08-08T23:02:28.835Z,18.12
2022-08-08T23:04:57.790Z,18.11
2022-08-08T23:07:51.541Z,18.08
2022-08-08T23:10:19.483Z,18.04
2022-08-08T23:12:51.757Z,18.02
2022-08-08T23:16:40.541Z,17.96
2022-08-08T23:18:11.832Z,17.94
2022-08-08T23:20:41.217Z,17.93
2022-08-08T23:23:12.163Z,17.96
2022-08-08T23:25:47.805Z,17.94
2022-08-08T23:28:19.208Z,17.95
2022-08-08T23:30:47.848Z,17.91
2022-08-08T23:33:20.860Z,17.89
2022-08-08T23:36:08.338Z,17.86
2022-08-08T23:38:44.351Z,17.87
2022-08-08T23:41:24.487Z,17.81
2022-08-08T23:43:56.866Z,17.76
2022-08-08T23:49:02.870Z,17.76
2022-08-08T23:49:14.540Z,17.72
2022-08-08T23:52:04.709Z,17.72
2022-08-08T23:54:41.285Z,17.70
2022-08-08T23:57:25.448Z,17.67
